Time;durP1;ratioP1;P1;durP2;ratioP2;P2;SDS_P1;SDS_P2;PMS_P1;PMS_P2;Temp;Humidity;BMP_temperature;BMP_pressure;BME280_temperature;BME280_humidity;BME280_pressure;Samples;Min_cycle;Max_cycle;Signal;HPM_P1;HPM_P2
2023/01/29 00:01:20;;;;;;;18.67;10.25;;;;;;;-0.22;87.96;100746.75;5114769;28;20447;-73
2023/01/29 00:03:49;;;;;;;17.02;10.65;;;;;;;-0.29;88.10;100744.13;5114812;28;20031;-73
2023/01/29 00:06:15;;;;;;;16.98;9.88;;;;;;;-0.42;88.01;100725.97;5115145;28;20463;-74
2023/01/29 00:08:40;;;;;;;23.08;10.20;;;;;;;-0.34;88.91;100745.75;5114843;28;20110;-73
2023/01/29 00:11:08;;;;;;;16.63;10.93;;;;;;;-0.57;88.39;100704.44;5114956;28;20028;-73
2023/01/29 00:13:33;;;;;;;19.13;10.75;;;;;;;-0.63;89.48;100701.81;5114606;28;20027;-73
2023/01/29 00:16:00;;;;;;;18.58;10.38;;;;;;;-0.53;88.83;100736.94;5115049;28;20028;-73
2023/01/29 00:18:26;;;;;;;20.65;11.60;;;;;;;-0.65;89.66;100721.38;5114730;28;20042;-73
2023/01/29 00:20:52;;;;;;;15.88;10.60;;;;;;;-0.62;90.03;100723.13;5114818;28;20426;-73
2023/01/29 00:23:18;;;;;;;14.35;10.40;;;;;;;-0.59;89.88;100723.16;5114584;28;20052;-73
2023/01/29 00:25:44;;;;;;;18.10;11.35;;;;;;;-0.70;89.91;100684.63;5114513;28;20646;-74
2023/01/29 00:28:09;;;;;;;19.27;12.05;;;;;;;-0.52;90.08;100697.69;5114474;28;20050;-73
2023/01/29 00:30:35;;;;;;;17.55;10.35;;;;;;;-0.54;89.74;100683.19;5114229;28;20467;-74
2023/01/29 00:33:01;;;;;;;16.15;11.30;;;;;;;-0.57;89.91;100681.41;5114579;28;20039;-73
2023/01/29 00:35:26;;;;;;;17.75;11.48;;;;;;;-0.56;89.44;100678.00;5114307;28;20449;-73
2023/01/29 00:37:54;;;;;;;20.00;12.00;;;;;;;-0.58;89.57;100660.94;5114513;28;20107;-74
2023/01/29 00:40:19;;;;;;;20.38;11.63;;;;;;;-0.37;89.54;100678.31;5114384;28;20096;-74
2023/01/29 00:45:28;;;;;;;22.17;14.10;;;;;;;-0.36;89.08;100673.19;5114038;28;20165;-73
2023/01/29 00:47:53;;;;;;;28.85;16.60;;;;;;;-0.41;89.19;100671.41;5114351;28;20106;-73
2023/01/29 00:50:19;;;;;;;23.77;15.35;;;;;;;-0.66;89.17;100644.59;5114278;28;20028;-73
2023/01/29 00:52:44;;;;;;;25.50;17.05;;;;;;;-0.67;89.95;100650.56;5114024;28;20031;-73
2023/01/29 00:55:10;;;;;;;24.40;15.25;;;;;;;-0.56;89.37;100669.47;5114234;28;20458;-73
2023/01/29 00:57:36;;;;;;;18.38;12.50;;;;;;;-0.51;89.70;100672.97;5113487;28;20430;-74
2023/01/29 01:00:04;;;;;;;18.95;11.90;;;;;;;-0.57;88.97;100649.84;5113876;28;20110;-73
2023/01/29 01:05:18;;;;;;;17.88;11.77;;;;;;;-0.60;89.84;100660.03;5114065;28;20039;-73
2023/01/29 01:07:48;;;;;;;19.77;11.95;;;;;;;-0.76;89.25;100630.81;5113452;28;20023;-73
2023/01/29 01:10:19;;;;;;;17.65;11.82;;;;;;;-0.65;89.16;100648.88;5113743;28;20020;-73
2023/01/29 01:12:45;;;;;;;17.95;11.77;;;;;;;-0.77;89.32;100637.63;5113605;28;20027;-73
2023/01/29 01:15:11;;;;;;;20.20;12.18;;;;;;;-0.58;89.83;100671.16;5113843;28;20019;-73
2023/01/29 01:17:36;;;;;;;17.33;11.35;;;;;;;-0.65;89.59;100654.84;5113539;28;20024;-73
2023/01/29 01:20:02;;;;;;;21.17;11.98;;;;;;;-0.57;89.65;100658.38;5113210;28;20020;-73
2023/01/29 01:22:27;;;;;;;19.08;12.73;;;;;;;-0.54;89.68;100667.81;5112962;28;20071;-73
2023/01/29 01:24:53;;;;;;;16.73;12.30;;;;;;;-0.69;90.39;100639.44;5113530;28;20551;-73
2023/01/29 01:27:18;;;;;;;21.77;13.40;;;;;;;-0.70;90.09;100628.34;5113384;28;20023;-73
2023/01/29 01:29:45;;;;;;;22.00;12.90;;;;;;;-0.44;90.07;100661.13;5113312;28;20038;-73
2023/01/29 01:32:11;;;;;;;19.98;12.82;;;;;;;-0.47;90.07;100643.16;5113410;28;20028;-73
2023/01/29 01:34:36;;;;;;;22.38;12.57;;;;;;;-0.40;90.01;100633.03;5113217;28;20057;-73
2023/01/29 01:37:01;;;;;;;19.52;13.15;;;;;;;-0.37;90.27;100642.47;5113214;27;20031;-73
2023/01/29 01:39:27;;;;;;;18.70;11.65;;;;;;;-0.39;89.40;100636.44;5113451;28;20432;-73
2023/01/29 01:41:53;;;;;;;18.27;11.65;;;;;;;-0.32;89.55;100648.50;5113122;28;20023;-73
2023/01/29 01:44:57;;;;;;;17.65;11.45;;;;;;;-0.31;89.14;100650.22;5113001;28;20467;-73
2023/01/29 01:47:31;;;;;;;16.65;11.80;;;;;;;-0.40;89.24;100612.56;5112858;28;20030;-73
2023/01/29 01:50:10;;;;;;;18.52;11.30;;;;;;;-0.26;88.77;100638.31;5113239;28;20498;-73
2023/01/29 01:52:40;;;;;;;22.77;11.40;;;;;;;-0.28;89.49;100635.75;5112969;28;20024;-73
2023/01/29 01:55:08;;;;;;;17.63;11.20;;;;;;;-0.23;89.63;100642.66;5112264;28;20372;-73
2023/01/29 01:57:34;;;;;;;19.95;10.90;;;;;;;-0.23;89.36;100642.66;5111359;28;20055;-73
2023/01/29 02:00:10;;;;;;;19.30;11.18;;;;;;;-0.39;88.99;100619.38;5112541;28;20019;-74
2023/01/29 02:10:51;;;;;;;17.27;10.45;;;;;;;-0.41;88.60;100621.09;5112561;28;20039;-72
2023/01/29 02:13:17;;;;;;;14.57;9.93;;;;;;;-0.30;88.45;100639.13;5112814;28;20110;-72
2023/01/29 02:15:47;;;;;;;17.83;11.05;;;;;;;-0.53;88.36;100598.75;5112536;28;20202;-72
2023/01/29 02:18:15;;;;;;;18.40;10.85;;;;;;;-0.41;88.42;100615.97;5112562;28;20088;-72
2023/01/29 02:21:23;;;;;;;16.58;9.93;;;;;;;-0.23;88.18;100638.38;5112287;28;20046;-72
2023/01/29 02:23:54;;;;;;;17.27;10.32;;;;;;;-0.21;88.38;100644.41;5049055;28;20135;-72
2023/01/29 02:27:01;;;;;;;14.68;9.68;;;;;;;-0.21;88.14;100636.72;5049503;28;20067;-72
2023/01/29 02:29:34;;;;;;;16.88;10.50;;;;;;;-0.21;88.33;100644.41;5049350;28;20508;-72
2023/01/29 02:32:13;;;;;;;14.55;10.02;;;;;;;-0.35;88.05;100615.19;5049403;28;20036;-72
2023/01/29 02:38:06;;;;;;;16.70;11.10;;;;;;;-0.24;87.05;100640.94;5049274;28;20511;-72
2023/01/29 02:40:51;;;;;;;17.85;10.70;;;;;;;-0.43;86.74;100614.22;5049200;28;20500;-73
2023/01/29 02:43:34;;;;;;;18.00;11.05;;;;;;;-0.26;86.16;100636.63;5049303;28;20135;-72
2023/01/29 02:46:35;;;;;;;16.25;11.38;;;;;;;-0.27;86.50;100632.34;5049261;28;20086;-72
2023/01/29 02:49:13;;;;;;;20.52;11.05;;;;;;;-0.44;86.58;100603.13;5049326;28;20440;-72
2023/01/29 02:52:06;;;;;;;19.65;11.55;;;;;;;-0.25;86.30;100637.50;5049065;28;20060;-72
2023/01/29 02:54:45;;;;;;;19.15;12.00;;;;;;;-0.24;86.16;100639.22;5032387;28;20591;-72
2023/01/29 02:57:27;;;;;;;16.90;11.80;;;;;;;-0.40;86.18;100612.56;5049204;28;20044;-73
2023/01/29 02:59:56;;;;;;;20.58;12.23;;;;;;;-0.20;85.41;100637.56;5062486;28;20486;-73
2023/01/29 03:02:29;;;;;;;17.45;11.90;;;;;;;-0.26;85.71;100628.94;5112099;28;20493;-73
2023/01/29 03:05:01;;;;;;;18.58;11.85;;;;;;;-0.49;85.39;100597.09;5111903;28;20023;-73
2023/01/29 03:07:41;;;;;;;;;;;;;;;-0.27;nan;100644.28;5116066;28;20478;-73
2023/01/29 03:10:11;;;;;;;20.50;12.68;;;;;;;-0.24;85.49;100633.25;5116258;28;19967;-73
2023/01/29 03:12:39;;;;;;;19.35;11.80;;;;;;;-0.48;85.30;100585.16;5116148;28;20042;-73
2023/01/29 03:15:15;;;;;;;24.08;13.13;;;;;;;-0.26;85.52;100625.53;5115969;28;20032;-73
2023/01/29 03:17:56;;;;;;;20.40;13.95;;;;;;;-0.33;85.59;100610.97;5116090;28;20063;-73
2023/01/29 03:20:28;;;;;;;22.70;13.75;;;;;;;-0.18;85.32;100634.16;5116225;28;20031;-73
2023/01/29 03:23:06;;;;;;;20.02;13.07;;;;;;;-0.26;85.52;100630.66;5115868;28;20047;-73
2023/01/29 03:34:00;;;;;;;18.92;12.40;;;;;;;-0.16;85.06;100652.13;5115677;28;20078;-73
2023/01/29 03:36:38;;;;;;;16.35;12.20;;;;;;;-0.14;85.41;100622.28;5114537;28;20536;-73
2023/01/29 03:39:08;;;;;;;21.70;12.43;;;;;;;-0.30;85.01;100599.03;5115730;28;20031;-73
2023/01/29 03:42:04;;;;;;;16.40;12.30;;;;;;;-0.16;84.56;100621.41;5115569;28;20028;-73
2023/01/29 03:44:41;;;;;;;18.42;11.73;;;;;;;-0.20;84.59;100612.81;5052281;28;20079;-73
2023/01/29 03:47:25;;;;;;;18.67;11.77;;;;;;;-0.30;84.65;100590.50;5051979;28;20060;-73
2023/01/29 03:50:41;;;;;;;19.00;12.05;;;;;;;-0.18;84.50;100623.06;5035223;28;20554;-73
2023/01/29 03:53:42;;;;;;;17.58;11.60;;;;;;;-0.32;84.38;100597.31;4992926;28;20557;-73
2023/01/29 03:56:13;;;;;;;16.33;11.20;;;;;;;-0.18;84.32;100616.25;4989503;28;20409;-73
2023/01/29 03:58:47;;;;;;;16.75;11.38;;;;;;;-0.18;84.65;100617.94;4992559;28;20109;-73
2023/01/29 04:01:39;;;;;;;15.32;11.10;;;;;;;-0.34;84.54;100591.28;4992679;28;20038;-73
2023/01/29 04:04:10;;;;;;;;;;;;;;;-0.25;84.96;100609.34;4993433;28;20045;-73
2023/01/29 04:06:37;;;;;;;14.25;10.55;;;;;;;-0.30;84.92;100605.84;4992766;28;20529;-73
2023/01/29 04:09:15;;;;;;;17.33;11.15;;;;;;;-0.21;84.44;100628.16;4992508;28;20038;-73
2023/01/29 04:11:48;;;;;;;16.95;10.57;;;;;;;-0.37;84.74;100602.38;4992432;28;20526;-73
2023/01/29 04:14:14;;;;;;;17.67;10.82;;;;;;;-0.36;84.85;100595.53;4992491;28;20043;-73
2023/01/29 04:16:49;;;;;;;14.70;10.80;;;;;;;-0.24;84.56;100621.31;4992229;28;20030;-73
2023/01/29 04:19:15;;;;;;;15.40;10.35;;;;;;;-0.37;84.84;100583.59;4991716;28;20437;-73
2023/01/29 04:21:40;;;;;;;16.17;10.80;;;;;;;-0.26;84.69;100600.78;5032794;28;20075;-73
2023/01/29 04:24:07;;;;;;;15.65;10.20;;;;;;;-0.35;85.08;100592.13;5051259;28;20057;-73
2023/01/29 04:26:49;;;;;;;18.60;12.05;;;;;;;-0.24;84.80;100608.50;5075454;28;20055;-73
2023/01/29 04:29:36;;;;;;;15.07;10.70;;;;;;;-0.28;84.86;100588.81;5114570;28;20108;-73
2023/01/29 04:32:14;;;;;;;15.55;10.23;;;;;;;-0.23;84.29;100579.50;5114398;28;20106;-73
2023/01/29 04:35:18;;;;;;;15.48;10.52;;;;;;;-0.26;84.84;100582.00;5114360;28;20073;-73
2023/01/29 04:37:52;;;;;;;14.38;10.60;;;;;;;-0.25;85.04;100570.94;5051215;28;20065;-73
2023/01/29 04:40:19;;;;;;;16.15;10.52;;;;;;;-0.27;84.37;100567.50;5051418;28;20033;-73
2023/01/29 04:42:59;;;;;;;14.80;10.43;;;;;;;-0.43;85.03;100547.66;5051017;28;20485;-73
2023/01/29 04:45:44;;;;;;;15.23;10.90;;;;;;;-0.31;85.20;100565.75;5051354;28;20099;-73
2023/01/29 04:48:27;;;;;;;15.90;11.23;;;;;;;-0.26;84.42;100562.38;5051191;28;20040;-73
2023/01/29 04:51:16;;;;;;;14.55;10.07;;;;;;;-0.26;84.51;100564.94;5050905;28;20040;-73
2023/01/29 04:54:19;;;;;;;15.77;11.20;;;;;;;-0.25;84.28;100560.72;5050916;28;20458;-73
2023/01/29 04:57:00;;;;;;;15.70;10.15;;;;;;;-0.26;84.95;100559.81;4991385;28;20038;-73
2023/01/29 04:59:37;;;;;;;13.00;10.60;;;;;;;-0.20;84.73;100553.09;4991804;28;20052;-73
2023/01/29 05:02:05;;;;;;;17.00;11.25;;;;;;;-0.19;84.78;100552.25;4991211;28;20517;-73
2023/01/29 05:04:33;;;;;;;13.50;9.85;;;;;;;-0.52;84.23;100505.78;4991501;28;20026;-73
2023/01/29 05:07:06;;;;;;;13.88;11.02;;;;;;;-0.22;84.04;100550.50;4991168;28;20533;-73
2023/01/29 05:09:33;;;;;;;14.77;10.00;;;;;;;-0.24;84.47;100539.38;4991511;28;20030;-73
2023/01/29 05:12:01;;;;;;;13.05;10.13;;;;;;;-0.21;84.98;100538.53;4991305;28;20057;-73
2023/01/29 05:14:29;;;;;;;14.80;10.07;;;;;;;-0.22;84.25;100534.28;5032588;28;20033;-73
2023/01/29 05:16:59;;;;;;;12.52;10.13;;;;;;;-0.30;83.81;100526.50;5050364;28;20499;-73
2023/01/29 05:19:25;;;;;;;15.68;10.25;;;;;;;-0.38;84.02;100515.31;5050934;28;20068;-73
2023/01/29 05:21:50;;;;;;;15.32;10.35;;;;;;;-0.42;84.42;100501.66;5050408;28;20048;-73
2023/01/29 05:24:19;;;;;;;13.80;10.63;;;;;;;-0.49;84.51;100494.72;5050326;28;20056;-73
2023/01/29 05:29:31;;;;;;;20.05;11.95;;;;;;;-0.64;84.46;100497.09;5050383;28;20112;-72
2023/01/29 05:31:56;;;;;;;18.02;12.13;;;;;;;-0.63;84.91;100515.03;5050141;28;20111;-72
2023/01/29 05:34:22;;;;;;;14.82;11.30;;;;;;;-0.73;85.15;100500.41;5095490;28;20073;-72
2023/01/29 05:36:48;;;;;;;15.95;11.48;;;;;;;-0.81;85.08;100505.41;5113074;28;20510;-72
2023/01/29 05:39:13;;;;;;;16.27;11.82;;;;;;;-0.84;85.19;100500.28;5113421;28;20410;-72
2023/01/29 05:41:39;;;;;;;16.90;11.60;;;;;;;-0.81;85.65;100513.06;5113409;27;20114;-72
2023/01/29 05:44:04;;;;;;;13.63;10.75;;;;;;;-0.90;85.67;100501.88;5113035;28;20432;-73
2023/01/29 05:46:30;;;;;;;15.30;11.73;;;;;;;-1.06;85.52;100483.75;5113219;28;20027;-72
2023/01/29 05:48:55;;;;;;;17.15;12.73;;;;;;;-0.91;86.14;100523.19;5112747;28;20031;-72
2023/01/29 05:51:20;;;;;;;17.05;11.93;;;;;;;-0.98;86.39;100519.66;5112985;28;20063;-73
2023/01/29 05:53:46;;;;;;;16.15;12.35;;;;;;;-1.01;86.59;100514.53;5112964;28;20044;-72
2023/01/29 05:56:11;;;;;;;17.63;12.85;;;;;;;-1.04;86.87;100519.59;5113124;28;20028;-72
2023/01/29 05:58:36;;;;;;;19.75;13.38;;;;;;;-1.21;86.85;100506.56;5112810;28;20398;-72
2023/01/29 06:01:10;;;;;;;18.13;13.25;;;;;;;-1.22;86.53;100509.97;5112566;28;20042;-73
2023/01/29 06:03:36;;;;;;;17.35;13.20;;;;;;;-1.12;86.59;100536.50;5112799;28;20024;-72
2023/01/29 06:06:01;;;;;;;17.75;12.80;;;;;;;-1.21;86.44;100532.13;5112540;28;20030;-72
2023/01/29 06:08:26;;;;;;;18.35;12.73;;;;;;;-1.34;86.62;100502.97;5112837;28;20028;-72
2023/01/29 06:10:52;;;;;;;19.10;13.40;;;;;;;-1.32;86.68;100516.59;5112647;28;20035;-72
2023/01/29 06:13:17;;;;;;;17.92;12.50;;;;;;;-1.33;87.16;100512.34;5112743;28;20027;-72
2023/01/29 06:15:42;;;;;;;16.42;12.05;;;;;;;-1.22;87.47;100544.84;5112739;28;20073;-72
2023/01/29 06:18:08;;;;;;;17.25;12.85;;;;;;;-1.24;87.62;100526.97;5112656;28;20031;-72
2023/01/29 06:20:33;;;;;;;19.38;12.40;;;;;;;-1.38;87.18;100513.97;5112518;28;20032;-72
2023/01/29 06:22:59;;;;;;;16.00;11.68;;;;;;;-1.38;86.87;100515.69;5112327;28;20051;-72
2023/01/29 06:25:24;;;;;;;16.50;12.65;;;;;;;-1.37;86.90;100502.06;5112622;28;20030;-72
2023/01/29 06:27:50;;;;;;;16.58;12.05;;;;;;;-1.27;86.77;100514.13;5112196;28;20114;-72
2023/01/29 06:30:15;;;;;;;17.73;12.93;;;;;;;-0.99;87.63;100533.28;5112527;28;20110;-72
2023/01/29 06:32:41;;;;;;;17.63;12.23;;;;;;;-0.93;86.56;100542.75;5112474;28;20031;-73
2023/01/29 06:35:08;;;;;;;23.33;11.55;;;;;;;-0.91;86.43;100548.75;5112180;28;20497;-72
2023/01/29 06:37:34;;;;;;;17.40;11.30;;;;;;;-1.09;86.48;100516.97;5112553;28;20115;-72
2023/01/29 06:39:59;;;;;;;15.45;11.27;;;;;;;-1.04;86.72;100529.81;5112456;28;20111;-72
2023/01/29 06:42:26;;;;;;;18.10;12.70;;;;;;;-1.00;86.79;100523.91;5112045;27;20102;-72
2023/01/29 06:44:55;;;;;;;23.05;13.95;;;;;;;-0.98;86.52;100524.78;5112139;28;20031;-72
2023/01/29 06:47:21;;;;;;;17.27;12.10;;;;;;;-0.97;86.85;100540.97;5111951;28;20034;-72
2023/01/29 06:49:46;;;;;;;15.48;11.75;;;;;;;-0.79;86.25;100577.06;5112229;28;20111;-72
2023/01/29 06:52:11;;;;;;;19.88;12.25;;;;;;;-0.81;86.37;100566.78;5112150;28;20467;-72
2023/01/29 06:54:37;;;;;;;18.92;13.13;;;;;;;-0.84;85.92;100550.56;5112448;28;20112;-72
2023/01/29 06:57:02;;;;;;;18.25;12.20;;;;;;;-0.79;86.11;100564.28;5112142;28;20103;-72
2023/01/29 06:59:27;;;;;;;19.77;12.70;;;;;;;-0.66;85.82;100576.38;5112131;28;20039;-72
2023/01/29 07:01:53;;;;;;;17.13;12.27;;;;;;;-0.76;85.56;100562.63;5111886;28;20055;-73
2023/01/29 07:04:18;;;;;;;18.85;11.40;;;;;;;-0.78;85.78;100556.59;5111759;28;20024;-72
2023/01/29 07:06:43;;;;;;;21.65;12.52;;;;;;;-0.72;85.38;100562.63;5112261;28;20039;-72
2023/01/29 07:09:12;;;;;;;14.15;12.05;;;;;;;-0.56;85.41;100580.78;5111764;28;20120;-72
2023/01/29 07:11:38;;;;;;;19.05;12.93;;;;;;;-0.66;85.26;100550.81;5112127;28;20042;-73
2023/01/29 07:14:03;;;;;;;18.50;13.05;;;;;;;-0.41;85.35;100589.50;5111752;28;20483;-73
2023/01/29 07:16:29;;;;;;;16.67;11.90;;;;;;;-0.50;84.91;100574.91;5111986;28;20089;-73
2023/01/29 07:18:54;;;;;;;16.23;11.90;;;;;;;-0.45;85.47;100578.38;5111974;28;20039;-73
2023/01/29 07:21:19;;;;;;;17.90;12.57;;;;;;;-0.33;84.95;100587.91;5111944;28;20027;-73
2023/01/29 07:23:45;;;;;;;17.80;12.27;;;;;;;-0.45;84.67;100557.91;5111701;28;20060;-73
2023/01/29 07:26:11;;;;;;;16.73;12.00;;;;;;;-0.38;84.40;100571.63;5111800;28;20035;-73
2023/01/29 07:28:37;;;;;;;16.30;12.13;;;;;;;-0.41;85.15;100569.03;5111883;28;20031;-73
2023/01/29 07:31:03;;;;;;;18.55;13.10;;;;;;;-0.32;84.82;100572.56;5111551;28;20028;-73
2023/01/29 07:33:29;;;;;;;19.25;12.70;;;;;;;-0.19;84.51;100590.63;5111960;28;20024;-73
2023/01/29 07:35:55;;;;;;;14.43;11.57;;;;;;;-0.34;84.15;100564.03;5111727;28;20038;-73
2023/01/29 07:38:20;;;;;;;16.42;12.02;;;;;;;-0.25;84.32;100581.19;5111990;28;20116;-73
2023/01/29 07:40:46;;;;;;;17.38;12.63;;;;;;;-0.12;84.18;100605.25;5111834;28;20383;-73
2023/01/29 07:43:11;;;;;;;21.80;12.98;;;;;;;-0.26;84.71;100589.69;5110523;28;20036;-73
2023/01/29 07:45:38;;;;;;;24.25;15.05;;;;;;;-0.08;84.40;100592.50;5111748;28;20024;-73
2023/01/29 07:48:05;;;;;;;23.60;15.55;;;;;;;-0.19;84.68;100550.53;5111198;28;20035;-72
2023/01/29 07:50:32;;;;;;;21.25;13.25;;;;;;;0.01;83.92;100571.25;5111680;28;20027;-73
2023/01/29 07:52:57;;;;;;;17.55;13.75;;;;;;;-0.01;83.90;100560.09;5112447;28;20506;-72
2023/01/29 07:55:23;;;;;;;20.40;14.80;;;;;;;-0.16;84.36;100522.41;5115675;28;20055;-72
2023/01/29 07:57:55;;;;;;;19.35;13.25;;;;;;;0.04;83.13;100539.66;5115275;28;20042;-73
2023/01/29 08:00:21;;;;;;;18.70;13.52;;;;;;;0.14;83.86;100544.06;5115029;28;20023;-72
2023/01/29 08:02:46;;;;;;;21.05;16.05;;;;;;;0.15;82.94;100538.94;5115373;28;20036;-73
2023/01/29 08:05:12;;;;;;;24.63;14.13;;;;;;;0.16;82.67;100524.41;5115043;28;20032;-73
2023/01/29 08:07:37;;;;;;;20.92;14.15;;;;;;;0.16;82.77;100530.41;5115183;28;20032;-73
2023/01/29 08:10:03;;;;;;;20.90;13.52;;;;;;;0.42;82.44;100552.84;5114932;28;20023;-72
2023/01/29 08:12:29;;;;;;;17.80;13.60;;;;;;;0.47;82.51;100541.81;5115019;28;20106;-72
2023/01/29 08:14:54;;;;;;;21.05;15.05;;;;;;;0.57;82.30;100550.44;5114375;28;20107;-73
2023/01/29 08:17:20;;;;;;;18.23;14.23;;;;;;;0.46;82.31;100523.84;5114890;28;20437;-73
2023/01/29 08:19:45;;;;;;;19.63;14.20;;;;;;;0.55;82.19;100517.94;5114999;28;20386;-73
2023/01/29 08:22:10;;;;;;;20.42;15.43;;;;;;;0.67;81.60;100515.47;5114420;28;20023;-73
2023/01/29 08:24:36;;;;;;;19.35;15.38;;;;;;;0.72;81.38;100489.03;5114857;28;20502;-73
2023/01/29 08:27:01;;;;;;;22.63;16.63;;;;;;;0.96;81.60;100516.50;5114320;28;20501;-73
2023/01/29 08:29:26;;;;;;;26.67;18.02;;;;;;;0.92;81.04;100488.28;5114388;28;20034;-73
2023/01/29 08:31:52;;;;;;;22.42;16.95;;;;;;;1.03;80.64;100498.63;5094443;28;20059;-73
2023/01/29 08:34:17;;;;;;;24.17;16.27;;;;;;;1.12;80.77;100509.78;5094234;28;20024;-73
2023/01/29 08:36:42;;;;;;;22.58;16.23;;;;;;;1.10;80.62;100490.97;5094299;28;20028;-73
2023/01/29 08:39:08;;;;;;;21.63;15.73;;;;;;;1.27;80.19;100490.19;5093841;28;20024;-73
2023/01/29 08:41:33;;;;;;;20.88;16.15;;;;;;;1.25;80.11;100474.78;5094007;28;20028;-73
2023/01/29 08:44:01;;;;;;;36.72;22.05;;;;;;;1.25;80.34;100478.19;5093746;28;20051;-73
2023/01/29 08:46:26;;;;;;;25.55;18.38;;;;;;;1.35;80.00;100484.25;5093871;28;20157;-73
2023/01/29 08:48:52;;;;;;;22.50;16.00;;;;;;;1.18;79.63;100470.44;5093973;28;20111;-73
2023/01/29 08:51:17;;;;;;;25.55;17.98;;;;;;;1.32;80.20;100497.06;5093754;28;20028;-73
2023/01/29 08:53:42;;;;;;;24.83;16.73;;;;;;;1.24;79.76;100488.47;5093899;28;20507;-73
2023/01/29 08:56:08;;;;;;;24.67;16.83;;;;;;;1.33;79.66;100505.59;5093379;28;20020;-73
2023/01/29 08:58:33;;;;;;;24.95;15.77;;;;;;;1.18;80.23;100476.47;5093435;28;20038;-73
2023/01/29 09:01:10;;;;;;;30.73;19.80;;;;;;;1.34;79.60;100508.16;5092951;28;20031;-73
2023/01/29 09:03:35;;;;;;;34.28;22.70;;;;;;;1.18;80.27;100488.41;5093475;28;20063;-73
2023/01/29 09:06:01;;;;;;;24.95;18.02;;;;;;;1.33;79.98;100519.28;5093360;28;20071;-73
2023/01/29 09:08:27;;;;;;;27.92;17.15;;;;;;;1.28;80.02;100522.69;5093455;28;20043;-73
2023/01/29 09:10:52;;;;;;;26.65;18.90;;;;;;;1.16;80.05;100501.25;5093510;28;20028;-73
2023/01/29 09:13:18;;;;;;;32.90;24.05;;;;;;;1.28;80.79;100508.16;5093035;28;20036;-73
2023/01/29 09:15:43;;;;;;;28.25;19.88;;;;;;;1.30;80.42;100491.03;5093582;28;20429;-73
2023/01/29 09:18:08;;;;;;;27.67;18.00;;;;;;;1.44;80.27;100488.56;5093066;28;20038;-73
2023/01/29 09:20:36;;;;;;;29.55;19.20;;;;;;;1.72;79.83;100508.31;5093188;28;20107;-73
2023/01/29 09:23:07;;;;;;;41.20;24.38;;;;;;;1.72;79.95;100481.78;5093070;28;20047;-73
2023/01/29 09:25:32;;;;;;;58.30;48.13;;;;;;;2.23;79.12;100509.31;5093214;28;20028;-73
2023/01/29 09:27:58;;;;;;;38.85;24.45;;;;;;;2.49;78.50;100487.91;5092700;28;20050;-73
2023/01/29 09:30:23;;;;;;;27.65;17.42;;;;;;;2.71;77.01;100478.44;5093486;28;20078;-73
2023/01/29 09:32:48;;;;;;;34.55;20.25;;;;;;;2.81;76.62;100453.53;5093111;28;20032;-73
2023/01/29 09:35:14;;;;;;;28.50;19.05;;;;;;;3.11;75.68;100483.50;5092847;28;20476;-73
2023/01/29 09:37:39;;;;;;;25.70;17.60;;;;;;;3.05;75.49;100445.75;5093178;28;20115;-73
2023/01/29 09:40:05;;;;;;;22.42;17.85;;;;;;;3.17;75.21;100444.88;5092753;28;20024;-73
2023/01/29 09:42:47;;;;;;;27.48;19.27;;;;;;;3.34;74.79;100463.69;5092775;28;20050;-73
2023/01/29 09:45:20;;;;;;;46.28;25.10;;;;;;;3.38;74.76;100477.41;5092672;28;20031;-73
2023/01/29 09:47:47;;;;;;;31.42;20.10;;;;;;;3.13;74.60;100418.28;5092756;28;20036;-73
2023/01/29 09:50:25;;;;;;;26.88;17.45;;;;;;;3.34;74.35;100462.81;5092486;28;20020;-74
2023/01/29 09:53:09;;;;;;;34.63;19.60;;;;;;;3.23;74.29;100466.28;5092228;28;20024;-73
2023/01/29 09:56:15;;;;;;;25.15;17.50;;;;;;;3.03;74.29;100470.63;5092821;28;20031;-73
2023/01/29 09:58:42;;;;;;;22.63;17.23;;;;;;;3.02;74.85;100457.78;5049910;28;20033;-74
2023/01/29 10:01:25;;;;;;;23.10;15.50;;;;;;;2.98;75.18;100460.34;5049481;28;20040;-73
2023/01/29 10:04:24;;;;;;;22.73;15.63;;;;;;;2.94;74.91;100452.66;5049728;28;20115;-73
2023/01/29 10:07:15;;;;;;;25.83;17.15;;;;;;;2.78;75.31;100426.09;5049809;28;20032;-73
2023/01/29 10:10:10;;;;;;;53.05;33.60;;;;;;;2.76;75.51;100412.41;5049603;28;20135;-73
2023/01/29 10:12:52;;;;;;;38.15;22.38;;;;;;;2.74;75.96;100415.00;5048815;28;20396;-73
2023/01/29 10:15:27;;;;;;;27.92;18.88;;;;;;;2.98;76.13;100436.34;5048741;28;20036;-73
2023/01/29 10:18:04;;;;;;;24.75;18.85;;;;;;;2.91;76.14;100416.66;5049332;28;20518;-73
2023/01/29 10:20:33;;;;;;;41.80;30.58;;;;;;;3.02;76.39;100437.19;5049264;28;20041;-73
2023/01/29 10:23:37;;;;;;;26.15;21.10;;;;;;;2.94;75.94;100438.06;5048818;28;20048;-73
2023/01/29 10:26:04;;;;;;;56.75;40.15;;;;;;;2.87;76.04;100428.66;5009262;28;20073;-73
2023/01/29 10:28:44;;;;;;;42.72;31.60;;;;;;;2.77;76.06;100423.53;5009268;28;20033;-73
2023/01/29 10:31:19;;;;;;;66.13;45.03;;;;;;;2.67;76.03;100423.56;5009211;28;20030;-73
2023/01/29 10:33:53;;;;;;;62.40;38.53;;;;;;;2.59;77.03;100420.16;5009566;28;20567;-73
2023/01/29 10:36:31;;;;;;;59.35;34.00;;;;;;;2.56;76.86;100419.28;5009327;28;20042;-73
2023/01/29 10:38:57;;;;;;;25.98;21.02;;;;;;;2.49;76.88;100421.03;5009699;28;20099;-73
2023/01/29 10:41:47;;;;;;;27.48;20.48;;;;;;;2.40;77.18;100426.16;5009547;28;20129;-73
2023/01/29 10:44:41;;;;;;;46.97;30.65;;;;;;;2.34;77.17;100421.03;5009020;28;20029;-73
2023/01/29 10:47:33;;;;;;;33.08;22.45;;;;;;;2.33;77.24;100411.63;5008583;28;20041;-74
2023/01/29 10:50:04;;;;;;;;;;;;;;;2.19;77.82;100411.63;5009808;28;20470;-73
2023/01/29 10:52:41;;;;;;;59.03;36.73;;;;;;;2.28;77.87;100403.91;5009366;28;20008;-73
2023/01/29 10:55:31;;;;;;;31.80;22.80;;;;;;;2.32;77.87;100407.31;5009315;28;20057;-73
2023/01/29 10:58:14;;;;;;;32.78;23.35;;;;;;;2.32;77.57;100395.34;5009115;28;20172;-73
2023/01/29 11:00:40;;;;;;;40.28;26.52;;;;;;;2.08;77.64;100338.84;5014656;28;20306;-73
2023/01/29 11:03:25;;;;;;;34.72;22.85;;;;;;;2.17;77.94;100359.38;5051138;28;20017;-73
2023/01/29 11:06:29;;;;;;;41.20;26.23;;;;;;;2.34;78.09;100387.63;5051166;28;20468;-74
2023/01/29 11:09:01;;;;;;;49.58;32.10;;;;;;;2.41;78.78;100384.19;5051159;28;20449;-73
2023/01/29 11:11:40;;;;;;;45.70;29.52;;;;;;;2.39;78.30;100385.91;5051080;28;20063;-73
2023/01/29 11:14:12;;;;;;;31.52;21.88;;;;;;;2.41;78.56;100384.19;5050781;28;20025;-74
2023/01/29 11:16:47;;;;;;;26.23;20.67;;;;;;;2.40;78.30;100383.34;5051274;28;20420;-73
2023/01/29 11:19:13;;;;;;;37.63;27.35;;;;;;;2.25;78.29;100355.09;5050824;28;20535;-74
2023/01/29 11:22:00;;;;;;;32.83;24.10;;;;;;;2.31;78.45;100370.47;5051238;28;20052;-73
2023/01/29 11:24:26;;;;;;;29.42;21.17;;;;;;;2.30;79.44;100380.78;5071213;28;20036;-73
2023/01/29 11:26:54;;;;;;;22.40;18.15;;;;;;;2.20;79.33;100354.25;5071638;28;20094;-73
2023/01/29 11:29:26;;;;;;;22.83;17.40;;;;;;;2.31;79.70;100378.19;5074622;28;20400;-73
2023/01/29 11:31:52;;;;;;;25.10;18.35;;;;;;;2.31;79.96;100380.75;5074699;28;20030;-73
2023/01/29 11:34:20;;;;;;;22.63;15.68;;;;;;;2.27;80.38;100373.06;5074374;28;20103;-73
2023/01/29 11:36:56;;;;;;;18.83;14.73;;;;;;;2.24;80.43;100364.50;5074792;28;20108;-73
2023/01/29 11:39:23;;;;;;;22.40;16.88;;;;;;;1.95;80.55;100309.72;5074795;28;20024;-73
2023/01/29 11:41:57;;;;;;;27.33;19.88;;;;;;;2.13;81.20;100337.09;5074891;28;20020;-73
2023/01/29 11:44:41;;;;;;;26.83;18.98;;;;;;;2.16;81.53;100345.66;5074605;28;20035;-74
2023/01/29 11:47:28;;;;;;;25.48;17.08;;;;;;;2.17;81.87;100344.81;5074485;28;20472;-73
2023/01/29 11:49:59;;;;;;;33.15;22.45;;;;;;;2.22;82.37;100337.94;5074911;28;20024;-74
2023/01/29 11:52:39;;;;;;;26.85;17.30;;;;;;;2.09;82.68;100314.84;5074498;28;20095;-73
2023/01/29 11:55:27;;;;;;;26.10;19.02;;;;;;;2.14;82.85;100319.09;5074608;28;20024;-73
2023/01/29 11:58:01;;;;;;;35.22;23.33;;;;;;;1.83;82.75;100263.50;5074500;28;20086;-73
2023/01/29 12:00:34;;;;;;;50.78;30.63;;;;;;;2.09;83.13;100304.56;5074210;28;20112;-73
2023/01/29 12:03:19;;;;;;;62.15;38.85;;;;;;;2.15;83.67;100299.41;5074607;28;20108;-73